createdAt,value
2018-11-03T00:02:14.929Z,96259.95
2018-11-03T00:04:43.797Z,96261.05
2018-11-03T00:07:12.754Z,96252.66
2018-11-03T00:09:41.676Z,96255.52
2018-11-03T00:12:10.632Z,96256.00
2018-11-03T00:14:39.480Z,96256.13
2018-11-03T00:17:08.454Z,96260.23
2018-11-03T00:19:38.086Z,96252.13
2018-11-03T00:22:07.741Z,96250.47
2018-11-03T00:24:36.681Z,96247.31
2018-11-03T00:27:05.668Z,96249.06
2018-11-03T00:29:34.591Z,96247.20
2018-11-03T00:32:03.643Z,96259.58
2018-11-03T00:34:32.969Z,96253.23
2018-11-03T00:37:01.887Z,96248.89
2018-11-03T00:39:30.824Z,96245.11
2018-11-03T00:41:59.741Z,96232.47
2018-11-03T00:44:28.718Z,96242.91
2018-11-03T00:46:57.640Z,96234.33
2018-11-03T00:49:26.506Z,96242.76
2018-11-03T00:51:55.407Z,96239.51
2018-11-03T00:54:24.273Z,96247.77
2018-11-03T00:56:53.194Z,96246.41
2018-11-03T00:59:22.060Z,96239.02
2018-11-03T01:01:50.924Z,96236.23
2018-11-03T01:04:19.789Z,96236.06
2018-11-03T01:06:48.761Z,96235.94
2018-11-03T01:09:17.676Z,96236.56
2018-11-03T01:11:46.918Z,96237.50
2018-11-03T01:14:15.804Z,96233.27
2018-11-03T01:16:44.757Z,96229.48
2018-11-03T01:19:13.729Z,96227.97
2018-11-03T01:21:42.576Z,96225.71
2018-11-03T01:24:11.540Z,96226.86
2018-11-03T01:26:40.443Z,96226.70
2018-11-03T01:29:09.469Z,96230.19
2018-11-03T01:31:38.361Z,96231.13
2018-11-03T01:34:07.357Z,96231.83
2018-11-03T01:36:36.275Z,96225.05
2018-11-03T01:39:07.217Z,96222.14
2018-11-03T01:41:36.126Z,96224.59
2018-11-03T01:44:05.139Z,96226.86
2018-11-03T01:46:34.089Z,96229.86
2018-11-03T01:49:02.982Z,96226.23
2018-11-03T01:51:32.038Z,96224.56
2018-11-03T01:54:00.962Z,96228.80
2018-11-03T01:56:29.868Z,96223.33
2018-11-03T01:58:58.770Z,96222.70
2018-11-03T02:01:27.719Z,96216.59
2018-11-03T02:03:57.298Z,96216.72
2018-11-03T02:06:26.262Z,96226.56
2018-11-03T02:08:55.229Z,96220.58
2018-11-03T02:11:24.150Z,96229.06
2018-11-03T02:13:53.079Z,96225.04
2018-11-03T02:16:21.988Z,96222.02
2018-11-03T02:18:50.852Z,96227.19
2018-11-03T02:21:19.739Z,96223.78
2018-11-03T02:23:48.617Z,96221.49
2018-11-03T02:26:17.563Z,96223.22
2018-11-03T02:28:46.625Z,96218.56
2018-11-03T02:31:15.517Z,96212.28
2018-11-03T02:33:44.515Z,96208.94
2018-11-03T02:36:13.581Z,96210.59
2018-11-03T02:38:42.599Z,96213.42
2018-11-03T02:41:11.531Z,96215.55
2018-11-03T02:43:40.382Z,96220.91
2018-11-03T02:46:09.277Z,96216.42
2018-11-03T02:48:38.229Z,96210.06
2018-11-03T02:51:07.085Z,96214.97
2018-11-03T02:53:36.003Z,96218.52
2018-11-03T02:56:04.902Z,96217.81
2018-11-03T02:58:33.753Z,96216.56
2018-11-03T03:01:02.692Z,96218.95
2018-11-03T03:03:31.624Z,96221.75
2018-11-03T03:06:00.593Z,96221.50
2018-11-03T03:08:29.520Z,96221.02
2018-11-03T03:10:58.370Z,96221.99
2018-11-03T03:13:27.263Z,96219.61
2018-11-03T03:15:56.217Z,96221.04
2018-11-03T03:18:25.112Z,96217.93
2018-11-03T03:20:54.019Z,96219.20
2018-11-03T03:23:22.880Z,96215.36
2018-11-03T03:25:51.724Z,96217.03
2018-11-03T03:28:20.602Z,96219.87
2018-11-03T03:30:49.493Z,96220.14
2018-11-03T03:33:18.426Z,96217.83
2018-11-03T03:35:47.322Z,96220.45
2018-11-03T03:38:16.232Z,96216.44
2018-11-03T03:40:45.200Z,96216.11
2018-11-03T03:43:13.997Z,96209.22
2018-11-03T03:45:42.902Z,96214.65
2018-11-03T03:48:11.813Z,96211.95
2018-11-03T03:50:40.718Z,96215.48
2018-11-03T03:53:09.617Z,96213.98
2018-11-03T03:55:38.558Z,96219.48
2018-11-03T03:58:07.616Z,96211.36
2018-11-03T04:00:36.605Z,96210.05
2018-11-03T04:03:05.641Z,96212.04
2018-11-03T04:05:41.157Z,96205.16
2018-11-03T04:08:09.988Z,96205.78
2018-11-03T04:10:39.006Z,96206.83
2018-11-03T04:13:07.908Z,96204.81
2018-11-03T04:15:36.905Z,96203.88
2018-11-03T04:18:05.877Z,96209.64
2018-11-03T04:20:34.723Z,96207.47
2018-11-03T04:23:03.610Z,96210.91
2018-11-03T04:25:32.492Z,96213.11
2018-11-03T04:28:01.515Z,96215.65
2018-11-03T04:30:30.349Z,96211.64
2018-11-03T04:32:59.369Z,96212.31
2018-11-03T04:35:28.260Z,96213.77
2018-11-03T04:37:57.111Z,96216.64
2018-11-03T04:40:26.010Z,96212.63
2018-11-03T04:42:54.933Z,96224.64
2018-11-03T04:45:23.927Z,96221.13
2018-11-03T04:47:52.844Z,96219.53
2018-11-03T04:50:21.776Z,96213.22
2018-11-03T04:52:50.768Z,96221.06
2018-11-03T04:55:19.836Z,96224.17
2018-11-03T04:57:48.747Z,96220.73
2018-11-03T05:00:17.667Z,96221.06
2018-11-03T05:02:46.527Z,96229.63
2018-11-03T05:05:15.442Z,96227.58
2018-11-03T05:07:44.372Z,96230.73
2018-11-03T05:10:13.424Z,96231.36
2018-11-03T05:12:42.289Z,96227.23
2018-11-03T05:15:11.238Z,96225.30
2018-11-03T05:17:40.160Z,96228.25
2018-11-03T05:20:09.105Z,96228.73
2018-11-03T05:22:38.010Z,96232.73
2018-11-03T05:25:06.982Z,96233.39
2018-11-03T05:27:35.964Z,96231.23
2018-11-03T05:30:05.074Z,96233.84
2018-11-03T05:32:33.976Z,96237.66
2018-11-03T05:35:02.869Z,96247.84
2018-11-03T05:37:31.859Z,96246.48
2018-11-03T05:40:00.862Z,96246.83
2018-11-03T05:42:29.761Z,96244.89
2018-11-03T05:44:58.718Z,96245.23
2018-11-03T05:47:27.660Z,96249.01
2018-11-03T05:49:56.706Z,96247.06
2018-11-03T05:52:25.630Z,96253.81
2018-11-03T05:54:54.640Z,96254.38
2018-11-03T05:57:23.565Z,96254.53
2018-11-03T05:59:52.524Z,96259.41
2018-11-03T06:02:21.515Z,96262.52
2018-11-03T06:04:50.399Z,96259.56
2018-11-03T06:07:19.330Z,96264.58
2018-11-03T06:09:48.275Z,96261.06
2018-11-03T06:12:17.282Z,96260.69
2018-11-03T06:14:46.236Z,96269.38
2018-11-03T06:17:15.091Z,96269.52
2018-11-03T06:19:43.997Z,96273.89
2018-11-03T06:22:12.960Z,96276.92
2018-11-03T06:24:41.985Z,96273.39
2018-11-03T06:27:10.942Z,96273.61
2018-11-03T06:29:39.838Z,96278.06
2018-11-03T06:32:08.878Z,96277.61
2018-11-03T06:34:39.998Z,96274.98
2018-11-03T06:37:10.062Z,96273.59
2018-11-03T06:39:43.473Z,96274.52
2018-11-03T06:42:13.602Z,96273.23
2018-11-03T06:44:43.515Z,96281.47
2018-11-03T06:47:12.605Z,96271.86
2018-11-03T06:49:41.460Z,96275.28
2018-11-03T06:52:11.999Z,96271.67
2018-11-03T06:54:40.997Z,96276.92
2018-11-03T06:57:10.826Z,96277.53
2018-11-03T06:59:39.825Z,96275.11
2018-11-03T07:02:09.928Z,96278.99
2018-11-03T07:04:38.884Z,96271.51
2018-11-03T07:07:07.772Z,96274.36
2018-11-03T07:09:36.844Z,96273.48
2018-11-03T07:12:06.317Z,96274.23
2018-11-03T07:14:36.436Z,96265.86
2018-11-03T07:17:05.489Z,96273.80
2018-11-03T07:19:34.444Z,96269.37
2018-11-03T07:22:03.317Z,96269.67
2018-11-03T07:24:32.367Z,96266.28
2018-11-03T07:27:02.100Z,96263.61
2018-11-03T07:29:31.003Z,96264.53
2018-11-03T07:32:00.011Z,96266.13
2018-11-03T07:34:28.904Z,96267.41
2018-11-03T07:36:57.851Z,96268.16
2018-11-03T07:39:27.237Z,96266.80
2018-11-03T07:41:56.446Z,96267.38
2018-11-03T07:44:28.868Z,96267.01
2018-11-03T07:46:57.792Z,96269.45
2018-11-03T07:49:26.839Z,96270.67
2018-11-03T07:51:55.686Z,96267.53
2018-11-03T07:54:24.674Z,96265.16
2018-11-03T07:56:53.589Z,96253.77
2018-11-03T07:59:22.523Z,96261.55
2018-11-03T08:01:51.834Z,96265.70
2018-11-03T08:04:20.966Z,96258.63
2018-11-03T08:06:49.878Z,96259.66
2018-11-03T08:09:18.856Z,96253.71
2018-11-03T08:11:47.879Z,96248.25
2018-11-03T08:14:16.765Z,96250.97
2018-11-03T08:16:45.657Z,96245.47
2018-11-03T08:19:14.581Z,96245.55
2018-11-03T08:21:43.503Z,96236.62
2018-11-03T08:24:12.418Z,96241.52
2018-11-03T08:26:41.333Z,96240.41
2018-11-03T08:29:10.233Z,96241.67
2018-11-03T08:31:39.255Z,96232.27
2018-11-03T08:34:08.038Z,96231.65
2018-11-03T08:36:37.001Z,96223.50
2018-11-03T08:39:07.840Z,96222.74
2018-11-03T08:41:41.579Z,96219.81
2018-11-03T08:44:10.607Z,96213.13
2018-11-03T08:46:39.841Z,96216.60
2018-11-03T08:49:08.881Z,96215.14
2018-11-03T08:51:37.850Z,96216.30
2018-11-03T08:54:07.340Z,96212.19
2018-11-03T08:56:36.425Z,96210.47
2018-11-03T08:59:05.468Z,96215.58
2018-11-03T09:01:35.073Z,96204.63
2018-11-03T09:04:04.115Z,96203.98
2018-11-03T09:06:33.470Z,96207.96
2018-11-03T09:09:02.556Z,96202.84
2018-11-03T09:11:31.617Z,96193.33
2018-11-03T09:14:17.641Z,96194.50
2018-11-03T09:16:46.622Z,96189.52
2018-11-03T09:19:15.675Z,96193.28
2018-11-03T09:21:44.750Z,96183.45
2018-11-03T09:24:15.481Z,96187.91
2018-11-03T09:26:44.384Z,96179.33
2018-11-03T09:29:13.411Z,96167.48
2018-11-03T09:31:42.442Z,96170.41
2018-11-03T09:34:11.433Z,96162.20
2018-11-03T09:36:40.385Z,96164.84
2018-11-03T09:39:10.713Z,96160.39
2018-11-03T09:41:39.811Z,96159.39
2018-11-03T09:44:08.891Z,96159.56
2018-11-03T09:46:37.918Z,96157.26
2018-11-03T09:49:07.211Z,96150.66
2018-11-03T09:51:36.309Z,96140.58
2018-11-03T09:54:05.461Z,96148.48
2018-11-03T09:56:34.470Z,96139.44
2018-11-03T09:59:03.788Z,96134.84
2018-11-03T10:01:32.721Z,96133.66
2018-11-03T10:04:01.850Z,96134.30
2018-11-03T10:06:30.991Z,96129.16
2018-11-03T10:08:59.849Z,96127.66
2018-11-03T10:11:28.855Z,96122.52
2018-11-03T10:13:57.742Z,96114.91
2018-11-03T10:16:26.751Z,96110.88
2018-11-03T10:18:55.651Z,96110.88
2018-11-03T10:21:24.591Z,96094.11
2018-11-03T10:23:53.551Z,96095.55
2018-11-03T10:26:23.191Z,96084.86
2018-11-03T10:28:52.116Z,96084.97
2018-11-03T10:31:21.291Z,96076.14
2018-11-03T10:33:50.344Z,96073.83
2018-11-03T10:36:19.191Z,96071.94
2018-11-03T10:38:48.302Z,96061.63
2018-11-03T10:41:17.291Z,96054.68
2018-11-03T10:43:46.315Z,96048.00
2018-11-03T10:46:15.342Z,96052.13
2018-11-03T10:48:44.374Z,96050.64
2018-11-03T10:51:13.340Z,96045.17
2018-11-03T10:53:42.565Z,96047.13
2018-11-03T10:56:11.628Z,96043.05
2018-11-03T10:58:40.687Z,96040.47
2018-11-03T11:01:14.596Z,96026.53
2018-11-03T11:03:48.594Z,96023.45
2018-11-03T11:06:22.546Z,96018.45
2018-11-03T11:08:56.479Z,96013.52
2018-11-03T11:11:30.620Z,96013.29
2018-11-03T11:13:59.897Z,96018.30
2018-11-03T11:16:28.975Z,96008.04
2018-11-03T11:18:57.917Z,96006.12
2018-11-03T11:21:26.997Z,96001.20
2018-11-03T11:23:56.065Z,95995.29
2018-11-03T11:26:25.038Z,95989.97
2018-11-03T11:28:54.280Z,95986.78
2018-11-03T11:31:23.464Z,95985.86
2018-11-03T11:33:52.299Z,95976.57
2018-11-03T11:36:21.245Z,95974.28
2018-11-03T11:38:50.234Z,95970.22
2018-11-03T11:41:19.219Z,95974.20
2018-11-03T11:43:48.244Z,95958.40
2018-11-03T11:46:17.424Z,95961.20
2018-11-03T11:48:46.405Z,95952.39
2018-11-03T11:51:15.484Z,95956.55
2018-11-03T11:53:44.490Z,95950.28
2018-11-03T11:56:13.553Z,95950.92
2018-11-03T11:58:42.469Z,95944.02
2018-11-03T12:01:11.471Z,95933.23
2018-11-03T12:03:40.750Z,95939.03
2018-11-03T12:06:09.718Z,95937.69
2018-11-03T12:08:38.751Z,95931.37
2018-11-03T12:11:07.901Z,95937.60
2018-11-03T12:13:36.954Z,95922.92
2018-11-03T12:16:06.120Z,95920.50
2018-11-03T12:18:35.222Z,95915.93
2018-11-03T12:21:04.126Z,95917.74
2018-11-03T12:23:32.998Z,95915.98
2018-11-03T12:26:01.912Z,95920.66
2018-11-03T12:28:30.949Z,95917.42
2018-11-03T12:30:59.891Z,95921.80
2018-11-03T12:33:29.089Z,95911.30
2018-11-03T12:35:58.026Z,95914.91
2018-11-03T12:38:26.954Z,95920.88
2018-11-03T12:40:55.966Z,95914.08
2018-11-03T12:43:24.772Z,95916.94
2018-11-03T12:45:53.782Z,95917.28
2018-11-03T12:48:22.702Z,95913.20
2018-11-03T12:50:51.485Z,95912.20
2018-11-03T12:53:20.394Z,95917.58
2018-11-03T12:55:49.303Z,95910.82
2018-11-03T12:58:18.256Z,95911.02
2018-11-03T13:00:47.246Z,95919.48
2018-11-03T13:03:16.904Z,95909.49
2018-11-03T13:05:45.793Z,95908.67
2018-11-03T13:08:14.727Z,95913.70
2018-11-03T13:10:43.582Z,95922.98
2018-11-03T13:13:12.551Z,95910.09
2018-11-03T13:15:41.447Z,95910.50
2018-11-03T13:18:10.294Z,95919.78
2018-11-03T13:20:39.168Z,95926.19
2018-11-03T13:23:08.198Z,95917.41
2018-11-03T13:25:37.110Z,95924.38
2018-11-03T13:28:06.441Z,95928.70
2018-11-03T13:30:35.315Z,95920.23
2018-11-03T13:33:04.267Z,95920.55
2018-11-03T13:35:33.147Z,95918.02
2018-11-03T13:38:02.111Z,95914.52
2018-11-03T13:40:31.074Z,95916.26
2018-11-03T13:43:00.017Z,95913.91
2018-11-03T13:45:28.969Z,95913.09
2018-11-03T13:47:57.910Z,95910.00
2018-11-03T13:50:26.781Z,95915.14
2018-11-03T13:52:55.768Z,95909.50
2018-11-03T13:55:24.650Z,95901.95
2018-11-03T13:57:53.556Z,95901.03
2018-11-03T14:00:22.465Z,95898.58
2018-11-03T14:02:51.431Z,95903.78
2018-11-03T14:05:20.442Z,95902.63
2018-11-03T14:07:49.487Z,95897.84
2018-11-03T14:10:18.478Z,95908.78
2018-11-03T14:12:47.612Z,95900.83
2018-11-03T14:15:17.697Z,95908.98
2018-11-03T14:17:46.602Z,95906.16
2018-11-03T14:20:16.259Z,95904.05
2018-11-03T14:22:45.747Z,95905.95
2018-11-03T14:25:16.319Z,95908.81
2018-11-03T14:27:46.373Z,95914.29
2018-11-03T14:30:15.400Z,95917.08
2018-11-03T14:32:44.471Z,95914.59
2018-11-03T14:35:14.244Z,95915.89
2018-11-03T14:37:43.107Z,95919.49
2018-11-03T14:40:14.546Z,95920.72
2018-11-03T14:42:45.181Z,95915.82
2018-11-03T14:45:15.074Z,95921.28
2018-11-03T14:47:43.882Z,95920.58
2018-11-03T14:50:12.951Z,95926.62
2018-11-03T14:52:42.677Z,95916.84
2018-11-03T14:55:12.528Z,95921.94
2018-11-03T14:57:41.412Z,95918.36
2018-11-03T15:00:16.158Z,95923.83
2018-11-03T15:02:45.139Z,95936.52
2018-11-03T15:05:14.252Z,95931.79
2018-11-03T15:07:44.200Z,95938.67
2018-11-03T15:10:13.777Z,95934.10
2018-11-03T15:12:43.877Z,95937.91
2018-11-03T15:15:14.425Z,95949.22
2018-11-03T15:17:43.675Z,95939.27
2018-11-03T15:20:12.961Z,95947.66
2018-11-03T15:22:42.499Z,95953.23
2018-11-03T15:25:11.696Z,95955.88
2018-11-03T15:27:41.116Z,95958.29
2018-11-03T15:30:11.154Z,95956.31
2018-11-03T15:32:40.348Z,95968.06
2018-11-03T15:35:10.009Z,95965.23
2018-11-03T15:37:39.210Z,95967.84
2018-11-03T15:40:10.833Z,95963.99
2018-11-03T15:42:39.673Z,95971.42
2018-11-03T15:45:11.378Z,95972.67
2018-11-03T15:47:40.306Z,95966.92
2018-11-03T15:50:09.159Z,95974.89
2018-11-03T15:52:37.981Z,95975.09
2018-11-03T15:55:07.315Z,95976.95
2018-11-03T15:57:36.201Z,95976.56
2018-11-03T16:00:06.033Z,95976.99
2018-11-03T16:02:34.934Z,95986.45
2018-11-03T16:05:03.823Z,95980.53
2018-11-03T16:07:32.671Z,95988.94
2018-11-03T16:10:01.537Z,95984.62
2018-11-03T16:12:30.434Z,95984.03
2018-11-03T16:14:59.326Z,95981.97
2018-11-03T16:17:28.121Z,95987.41
2018-11-03T16:19:56.998Z,95984.84
2018-11-03T16:22:25.867Z,95985.59
2018-11-03T16:24:54.878Z,95987.19
2018-11-03T16:27:23.715Z,95985.02
2018-11-03T16:29:52.997Z,95999.05
2018-11-03T16:32:22.115Z,95988.23
2018-11-03T16:34:50.825Z,95996.33
2018-11-03T16:37:19.684Z,95997.53
2018-11-03T16:39:48.625Z,95999.94
2018-11-03T16:42:17.479Z,96006.45
2018-11-03T16:44:46.422Z,96006.28
2018-11-03T16:47:15.331Z,96007.96
2018-11-03T16:49:44.169Z,96006.80
2018-11-03T16:52:13.042Z,96011.84
2018-11-03T16:54:41.908Z,96009.79
2018-11-03T16:57:17.120Z,96007.64
2018-11-03T16:59:45.961Z,96012.47
2018-11-03T17:02:14.822Z,96012.44
2018-11-03T17:04:43.805Z,96010.06
2018-11-03T17:07:12.706Z,96025.72
2018-11-03T17:09:41.812Z,96014.08
2018-11-03T17:12:10.842Z,96014.17
2018-11-03T17:14:39.826Z,96017.92
2018-11-03T17:17:08.802Z,96011.05
2018-11-03T17:19:37.669Z,96012.09
2018-11-03T17:22:06.848Z,96011.56
2018-11-03T17:24:35.791Z,96023.34
2018-11-03T17:27:05.589Z,96015.84
2018-11-03T17:29:34.573Z,96016.30
2018-11-03T17:32:03.629Z,96020.27
2018-11-03T17:34:32.564Z,96022.14
2018-11-03T17:37:01.485Z,96024.65
2018-11-03T17:39:30.322Z,96019.62
2018-11-03T17:41:59.196Z,96018.30
2018-11-03T17:44:28.063Z,96023.90
2018-11-03T17:46:56.995Z,96033.00
2018-11-03T17:49:25.948Z,96032.37
2018-11-03T17:51:54.948Z,96036.50
2018-11-03T17:54:23.859Z,96037.50
2018-11-03T17:56:52.713Z,96032.75
2018-11-03T17:59:21.645Z,96033.08
2018-11-03T18:01:50.547Z,96033.72
2018-11-03T18:04:19.434Z,96047.25
2018-11-03T18:06:48.461Z,96050.88
2018-11-03T18:09:17.315Z,96046.28
2018-11-03T18:11:46.366Z,96056.31
2018-11-03T18:14:15.283Z,96056.16
2018-11-03T18:16:44.223Z,96061.70
2018-11-03T18:19:13.118Z,96068.66
2018-11-03T18:21:42.559Z,96068.50
2018-11-03T18:24:11.815Z,96075.38
2018-11-03T18:26:40.856Z,96074.23
2018-11-03T18:29:09.883Z,96077.86
2018-11-03T18:31:38.944Z,96080.41
2018-11-03T18:34:07.997Z,96085.37
2018-11-03T18:36:36.890Z,96082.78
2018-11-03T18:39:08.260Z,96083.29
2018-11-03T18:41:37.292Z,96081.00
2018-11-03T18:44:06.480Z,96087.67
2018-11-03T18:46:35.671Z,96090.54
2018-11-03T18:49:04.652Z,96092.83
2018-11-03T18:51:33.751Z,96096.97
2018-11-03T18:54:02.801Z,96094.58
2018-11-03T18:56:31.866Z,96104.11
2018-11-03T18:59:00.970Z,96105.92
2018-11-03T19:01:30.425Z,96112.84
2018-11-03T19:03:59.316Z,96113.17
2018-11-03T19:06:28.208Z,96114.87
2018-11-03T19:08:57.294Z,96118.49
2018-11-03T19:11:26.174Z,96126.32
2018-11-03T19:13:55.158Z,96126.73
2018-11-03T19:16:24.052Z,96119.80
2018-11-03T19:18:53.015Z,96130.45
2018-11-03T19:21:22.054Z,96128.08
2018-11-03T19:23:51.301Z,96119.34
2018-11-03T19:26:20.373Z,96123.48
2018-11-03T19:28:49.375Z,96126.20
2018-11-03T19:31:18.584Z,96123.61
2018-11-03T19:33:47.640Z,96128.80
2018-11-03T19:36:16.591Z,96129.59
2018-11-03T19:38:45.793Z,96126.02
2018-11-03T19:41:14.842Z,96135.48
2018-11-03T19:43:44.131Z,96145.97
2018-11-03T19:46:13.010Z,96138.80
2018-11-03T19:48:41.984Z,96136.61
2018-11-03T19:51:11.138Z,96134.92
2018-11-03T19:53:40.097Z,96139.52
2018-11-03T19:56:09.025Z,96145.72
2018-11-03T19:58:38.079Z,96143.58
2018-11-03T20:01:07.323Z,96146.98
2018-11-03T20:03:36.420Z,96143.44
2018-11-03T20:06:05.526Z,96150.83
2018-11-03T20:08:34.469Z,96157.98
2018-11-03T20:11:03.389Z,96160.23
2018-11-03T20:13:32.308Z,96158.36
2018-11-03T20:16:01.159Z,96162.36
2018-11-03T20:18:30.153Z,96160.17
2018-11-03T20:20:59.297Z,96164.11
2018-11-03T20:23:28.395Z,96162.02
2018-11-03T20:25:58.263Z,96166.34
2018-11-03T20:28:27.341Z,96159.73
2018-11-03T20:30:56.223Z,96169.52
2018-11-03T20:33:25.118Z,96166.83
2018-11-03T20:35:54.052Z,96166.45
2018-11-03T20:38:22.967Z,96162.41
2018-11-03T20:40:51.941Z,96154.48
2018-11-03T20:43:20.802Z,96153.66
2018-11-03T20:45:49.880Z,96159.77
2018-11-03T20:48:19.190Z,96157.66
2018-11-03T20:50:52.245Z,96162.62
2018-11-03T20:53:21.190Z,96163.44
2018-11-03T20:55:50.062Z,96155.41
2018-11-03T20:58:19.053Z,96145.02
2018-11-03T21:00:48.290Z,96159.87
2018-11-03T21:03:17.373Z,96160.54
2018-11-03T21:05:46.470Z,96160.77
2018-11-03T21:08:15.507Z,96166.06
2018-11-03T21:10:44.325Z,96165.29
2018-11-03T21:13:13.248Z,96163.86
2018-11-03T21:15:42.837Z,96165.83
2018-11-03T21:18:11.734Z,96162.34
2018-11-03T21:20:40.631Z,96164.03
2018-11-03T21:23:09.484Z,96162.88
2018-11-03T21:25:38.541Z,96164.48
2018-11-03T21:28:07.590Z,96157.08
2018-11-03T21:30:36.774Z,96162.13
2018-11-03T21:33:06.176Z,96161.80
2018-11-03T21:35:34.940Z,96157.99
2018-11-03T21:38:03.884Z,96152.34
2018-11-03T21:40:32.792Z,96156.84
2018-11-03T21:43:01.674Z,96153.77
2018-11-03T21:45:30.533Z,96151.92
2018-11-03T21:47:59.436Z,96153.61
2018-11-03T21:50:28.326Z,96149.72
2018-11-03T21:52:57.210Z,96150.61
2018-11-03T21:55:26.068Z,96148.20
2018-11-03T21:57:54.954Z,96147.59
2018-11-03T22:00:23.941Z,96143.77
2018-11-03T22:02:53.032Z,96138.08
2018-11-03T22:05:22.102Z,96133.48
2018-11-03T22:07:51.096Z,96135.89
2018-11-03T22:10:20.096Z,96131.19
2018-11-03T22:12:49.120Z,96130.21
2018-11-03T22:15:18.025Z,96124.41
2018-11-03T22:17:47.042Z,96129.05
2018-11-03T22:20:15.894Z,96125.78
2018-11-03T22:22:44.713Z,96124.95
2018-11-03T22:25:13.656Z,96126.92
2018-11-03T22:27:42.525Z,96122.49
2018-11-03T22:30:12.216Z,96115.50
2018-11-03T22:32:41.681Z,96121.78
2018-11-03T22:35:10.589Z,96117.16
2018-11-03T22:37:39.541Z,96115.22
2018-11-03T22:40:09.189Z,96113.59
2018-11-03T22:42:38.117Z,96110.95
2018-11-03T22:45:07.028Z,96106.52
2018-11-03T22:47:36.233Z,96104.30
2018-11-03T22:50:05.383Z,96100.69
2018-11-03T22:52:34.343Z,96097.91
2018-11-03T22:55:03.174Z,96095.98
2018-11-03T22:57:32.106Z,96092.92
2018-11-03T23:00:01.132Z,96086.24
2018-11-03T23:02:29.989Z,96091.67
2018-11-03T23:04:58.914Z,96082.64
2018-11-03T23:07:27.795Z,96085.27
2018-11-03T23:09:56.827Z,96082.31
2018-11-03T23:12:25.732Z,96079.92
2018-11-03T23:14:54.574Z,96082.50
2018-11-03T23:17:23.466Z,96079.80
2018-11-03T23:19:52.346Z,96083.64
2018-11-03T23:22:21.366Z,96076.30
2018-11-03T23:24:50.277Z,96080.91
2018-11-03T23:27:19.197Z,96076.25
2018-11-03T23:29:48.130Z,96083.48
2018-11-03T23:32:16.943Z,96084.66
2018-11-03T23:34:46.000Z,96085.23
2018-11-03T23:37:14.856Z,96088.50
2018-11-03T23:39:43.711Z,96092.13
2018-11-03T23:42:13.186Z,96087.85
2018-11-03T23:44:42.155Z,96094.06
2018-11-03T23:47:11.226Z,96091.23
2018-11-03T23:49:40.159Z,96092.39
2018-11-03T23:52:09.026Z,96094.28
2018-11-03T23:54:37.954Z,96097.91
2018-11-03T23:57:06.858Z,96104.63
2018-11-03T23:59:35.705Z,96102.47
